Ronald Reagan Washington National Airport
KDCA : now visible

Airfield :











YOU CAN JOIN US ON...

 
LOGIN :

Register | Disclaimer

   EN    FR    IT 

 









Legend :    VFR   Marginal VFR   IFR   Intensive IFR   Very Intensive IFR
Visi :
Ceiling :
>= 8 km
>= 3000ft
5 to 8 km
1000 to 3000 ft
1500m to 5 km
500 to 1000 ft
800 to 1500m
200 to 500 ft
< 800m
< 200 ft
Symbols :   Thunderstorms  Fog  Heavy snow  Heavy precipitations  Wind > 20 kt






- Airport Elevation : 15 ft
- IATA code : DCA


KDCA - Ronald Reagan Washington National

CURRENT METAR :
  • 071952Z 18006KT 10SM SCT040 SCT250 30/21 A3005 RMK AO2 SLP175 T03000211

EXPIRED METARs :
  • 071852Z 16009KT 10SM SCT040 SCT060 SCT250 29/23 A3006 RMK AO2 SLP179 T02940228
  • 071752Z 17010KT 10SM BKN038 BKN065 BKN250 28/22 A3008 RMK AO2 SLP184 60000 T02830217 10294 20244 58012

TAF KDCA
Valid from the 07 at 18:00 until the 09 at 00:00 UTC


071720Z 0718/0824 17005KT P6SM VCTS SCT025CB BKN110
FM080100 09004KT P6SM VCSH SCT025 BKN250
FM080500 VRB03KT P6SM SCT020 BKN035
FM081000 VRB03KT P6SM SCT020 BKN025
FM081300 01004KT P6SM SCT015 BKN250
FM082200 08004KT P6SM SCT050 BKN250
KZDC FIR / North America



MET'MAP, your aeronautical weather chart ! - Copyright ORBIFLY December 2007 - Disclaimer

ORBIFLY MET'MAP TEAM :

Programming & Development : Alexandra Zaïnal
Concept & original design : Baudouin d'Aumeries
Assistance for programming : Marc-Olivier Méhu
Technical & hardware support : Manuel Goepfert

Contact : metmap@orbifly.com




SOURCES & CREDITS :

   NOAA       Earth
Advisory